sensor_id;sensor_type;location;lat;lon;timestamp;P1;durP1;ratioP1;P2;durP2;ratioP2
422;SDS011;198;48.752;9.180;2022-12-16T00:01:09;50.30;;;18.40;;
422;SDS011;198;48.752;9.180;2022-12-16T00:03:39;52.20;;;19.00;;
422;SDS011;198;48.752;9.180;2022-12-16T00:06:07;51.50;;;18.43;;
422;SDS011;198;48.752;9.180;2022-12-16T00:08:34;54.20;;;19.90;;
422;SDS011;198;48.752;9.180;2022-12-16T00:11:01;43.50;;;17.53;;
422;SDS011;198;48.752;9.180;2022-12-16T00:13:28;60.60;;;19.40;;
422;SDS011;198;48.752;9.180;2022-12-16T00:15:55;59.50;;;21.27;;
422;SDS011;198;48.752;9.180;2022-12-16T00:18:21;45.93;;;15.53;;
422;SDS011;198;48.752;9.180;2022-12-16T00:20:48;42.40;;;14.80;;
422;SDS011;198;48.752;9.180;2022-12-16T00:23:16;55.80;;;17.20;;
422;SDS011;198;48.752;9.180;2022-12-16T00:25:42;42.17;;;17.57;;
422;SDS011;198;48.752;9.180;2022-12-16T00:28:08;50.50;;;18.67;;
422;SDS011;198;48.752;9.180;2022-12-16T00:30:35;51.03;;;19.33;;
422;SDS011;198;48.752;9.180;2022-12-16T00:33:00;60.50;;;19.13;;
422;SDS011;198;48.752;9.180;2022-12-16T00:35:27;47.20;;;15.00;;
422;SDS011;198;48.752;9.180;2022-12-16T00:37:54;42.70;;;17.50;;
422;SDS011;198;48.752;9.180;2022-12-16T00:40:20;57.57;;;18.87;;
422;SDS011;198;48.752;9.180;2022-12-16T00:42:45;65.23;;;19.30;;
422;SDS011;198;48.752;9.180;2022-12-16T00:45:11;52.60;;;19.07;;
422;SDS011;198;48.752;9.180;2022-12-16T00:47:36;54.50;;;18.13;;
422;SDS011;198;48.752;9.180;2022-12-16T00:50:02;51.90;;;17.20;;
422;SDS011;198;48.752;9.180;2022-12-16T00:52:28;49.97;;;18.00;;
422;SDS011;198;48.752;9.180;2022-12-16T00:54:53;57.40;;;20.07;;
422;SDS011;198;48.752;9.180;2022-12-16T00:57:19;54.87;;;18.70;;
422;SDS011;198;48.752;9.180;2022-12-16T00:59:44;58.50;;;19.07;;
422;SDS011;198;48.752;9.180;2022-12-16T01:02:10;59.60;;;21.73;;
422;SDS011;198;48.752;9.180;2022-12-16T01:04:35;45.03;;;17.00;;
422;SDS011;198;48.752;9.180;2022-12-16T01:07:01;59.03;;;18.83;;
422;SDS011;198;48.752;9.180;2022-12-16T01:09:27;50.97;;;18.10;;
422;SDS011;198;48.752;9.180;2022-12-16T01:11:52;58.63;;;19.10;;
422;SDS011;198;48.752;9.180;2022-12-16T01:14:17;59.10;;;18.57;;
422;SDS011;198;48.752;9.180;2022-12-16T01:16:43;46.33;;;17.57;;
422;SDS011;198;48.752;9.180;2022-12-16T01:19:09;67.47;;;22.60;;
422;SDS011;198;48.752;9.180;2022-12-16T01:21:35;46.60;;;18.30;;
422;SDS011;198;48.752;9.180;2022-12-16T01:24:01;59.37;;;20.63;;
422;SDS011;198;48.752;9.180;2022-12-16T01:26:26;52.83;;;18.27;;
422;SDS011;198;48.752;9.180;2022-12-16T01:28:52;48.27;;;17.67;;
422;SDS011;198;48.752;9.180;2022-12-16T01:31:18;42.70;;;16.83;;
422;SDS011;198;48.752;9.180;2022-12-16T01:33:44;47.03;;;19.13;;
422;SDS011;198;48.752;9.180;2022-12-16T01:36:10;58.53;;;17.87;;
422;SDS011;198;48.752;9.180;2022-12-16T01:38:36;42.87;;;17.10;;
422;SDS011;198;48.752;9.180;2022-12-16T01:41:02;44.33;;;17.03;;
422;SDS011;198;48.752;9.180;2022-12-16T01:43:29;52.27;;;18.40;;
422;SDS011;198;48.752;9.180;2022-12-16T01:48:40;49.30;;;16.30;;
422;SDS011;198;48.752;9.180;2022-12-16T01:51:20;47.37;;;17.70;;
422;SDS011;198;48.752;9.180;2022-12-16T01:54:00;43.63;;;17.20;;
422;SDS011;198;48.752;9.180;2022-12-16T01:56:33;44.13;;;16.87;;
422;SDS011;198;48.752;9.180;2022-12-16T01:59:01;36.17;;;14.70;;
422;SDS011;198;48.752;9.180;2022-12-16T02:01:27;44.67;;;17.53;;
422;SDS011;198;48.752;9.180;2022-12-16T02:03:53;39.20;;;14.70;;
422;SDS011;198;48.752;9.180;2022-12-16T02:06:21;59.53;;;19.80;;
422;SDS011;198;48.752;9.180;2022-12-16T02:08:47;40.93;;;17.60;;
422;SDS011;198;48.752;9.180;2022-12-16T02:14:07;44.10;;;17.17;;
422;SDS011;198;48.752;9.180;2022-12-16T02:17:03;50.77;;;17.30;;
422;SDS011;198;48.752;9.180;2022-12-16T02:27:51;43.13;;;15.43;;
422;SDS011;198;48.752;9.180;2022-12-16T02:30:26;54.30;;;16.83;;
422;SDS011;198;48.752;9.180;2022-12-16T02:35:43;47.47;;;16.73;;
422;SDS011;198;48.752;9.180;2022-12-16T02:38:26;42.90;;;17.37;;
422;SDS011;198;48.752;9.180;2022-12-16T02:41:00;47.10;;;14.90;;
422;SDS011;198;48.752;9.180;2022-12-16T02:46:26;51.10;;;18.43;;
422;SDS011;198;48.752;9.180;2022-12-16T02:48:54;49.07;;;20.17;;
422;SDS011;198;48.752;9.180;2022-12-16T02:51:20;49.70;;;17.07;;
422;SDS011;198;48.752;9.180;2022-12-16T02:53:48;55.73;;;19.80;;
422;SDS011;198;48.752;9.180;2022-12-16T03:01:56;50.17;;;17.90;;
422;SDS011;198;48.752;9.180;2022-12-16T03:04:37;36.63;;;15.70;;
422;SDS011;198;48.752;9.180;2022-12-16T03:07:27;50.33;;;16.60;;
422;SDS011;198;48.752;9.180;2022-12-16T03:09:57;46.10;;;15.90;;
422;SDS011;198;48.752;9.180;2022-12-16T03:12:24;49.07;;;18.90;;
422;SDS011;198;48.752;9.180;2022-12-16T03:14:51;54.67;;;18.20;;
422;SDS011;198;48.752;9.180;2022-12-16T03:17:19;52.93;;;16.87;;
422;SDS011;198;48.752;9.180;2022-12-16T03:19:48;46.27;;;16.37;;
422;SDS011;198;48.752;9.180;2022-12-16T03:22:22;40.23;;;14.90;;
422;SDS011;198;48.752;9.180;2022-12-16T03:24:51;49.60;;;16.90;;
422;SDS011;198;48.752;9.180;2022-12-16T03:32:21;45.37;;;16.17;;
422;SDS011;198;48.752;9.180;2022-12-16T03:34:56;41.03;;;16.27;;
422;SDS011;198;48.752;9.180;2022-12-16T03:37:26;55.30;;;17.20;;
422;SDS011;198;48.752;9.180;2022-12-16T03:39:56;42.97;;;17.50;;
422;SDS011;198;48.752;9.180;2022-12-16T03:42:25;52.00;;;16.03;;
422;SDS011;198;48.752;9.180;2022-12-16T03:44:51;43.57;;;16.53;;
422;SDS011;198;48.752;9.180;2022-12-16T03:47:17;42.80;;;16.10;;
422;SDS011;198;48.752;9.180;2022-12-16T03:49:43;46.37;;;15.33;;
422;SDS011;198;48.752;9.180;2022-12-16T03:52:09;46.83;;;16.87;;
422;SDS011;198;48.752;9.180;2022-12-16T03:54:35;48.83;;;16.60;;
422;SDS011;198;48.752;9.180;2022-12-16T03:57:01;47.93;;;17.87;;
422;SDS011;198;48.752;9.180;2022-12-16T03:59:26;41.10;;;15.93;;
422;SDS011;198;48.752;9.180;2022-12-16T04:01:52;45.20;;;16.47;;
422;SDS011;198;48.752;9.180;2022-12-16T04:04:18;47.63;;;15.73;;
422;SDS011;198;48.752;9.180;2022-12-16T04:06:44;47.57;;;17.00;;
422;SDS011;198;48.752;9.180;2022-12-16T04:09:09;40.80;;;15.53;;
422;SDS011;198;48.752;9.180;2022-12-16T04:11:35;34.87;;;13.57;;
422;SDS011;198;48.752;9.180;2022-12-16T04:14:19;45.17;;;16.63;;
422;SDS011;198;48.752;9.180;2022-12-16T04:17:04;38.47;;;14.37;;
422;SDS011;198;48.752;9.180;2022-12-16T04:19:48;37.17;;;12.97;;
422;SDS011;198;48.752;9.180;2022-12-16T04:22:36;38.53;;;14.53;;
422;SDS011;198;48.752;9.180;2022-12-16T04:25:30;37.27;;;14.77;;
422;SDS011;198;48.752;9.180;2022-12-16T04:27:59;45.97;;;12.73;;
422;SDS011;198;48.752;9.180;2022-12-16T04:30:25;42.90;;;14.10;;
422;SDS011;198;48.752;9.180;2022-12-16T04:32:53;39.20;;;15.30;;
422;SDS011;198;48.752;9.180;2022-12-16T04:35:43;37.23;;;14.77;;
422;SDS011;198;48.752;9.180;2022-12-16T04:38:28;40.23;;;13.73;;
422;SDS011;198;48.752;9.180;2022-12-16T04:41:12;36.60;;;12.00;;
422;SDS011;198;48.752;9.180;2022-12-16T04:43:57;27.40;;;12.23;;
422;SDS011;198;48.752;9.180;2022-12-16T04:46:41;32.97;;;12.37;;
422;SDS011;198;48.752;9.180;2022-12-16T04:49:25;42.00;;;12.53;;
422;SDS011;198;48.752;9.180;2022-12-16T04:52:09;30.17;;;11.57;;
422;SDS011;198;48.752;9.180;2022-12-16T04:54:54;39.43;;;12.53;;
422;SDS011;198;48.752;9.180;2022-12-16T04:57:38;39.77;;;13.00;;
422;SDS011;198;48.752;9.180;2022-12-16T05:00:23;41.03;;;13.80;;
422;SDS011;198;48.752;9.180;2022-12-16T05:03:07;36.80;;;14.27;;
422;SDS011;198;48.752;9.180;2022-12-16T05:05:51;41.03;;;14.37;;
422;SDS011;198;48.752;9.180;2022-12-16T05:08:35;37.10;;;11.90;;
422;SDS011;198;48.752;9.180;2022-12-16T05:11:19;53.07;;;12.70;;
422;SDS011;198;48.752;9.180;2022-12-16T05:14:03;38.97;;;14.40;;
422;SDS011;198;48.752;9.180;2022-12-16T05:16:55;36.40;;;13.17;;
422;SDS011;198;48.752;9.180;2022-12-16T05:19:39;36.20;;;13.50;;
422;SDS011;198;48.752;9.180;2022-12-16T05:22:37;34.97;;;13.40;;
422;SDS011;198;48.752;9.180;2022-12-16T05:25:21;36.97;;;11.37;;
422;SDS011;198;48.752;9.180;2022-12-16T05:28:05;32.67;;;14.03;;
422;SDS011;198;48.752;9.180;2022-12-16T05:30:49;32.50;;;13.03;;
422;SDS011;198;48.752;9.180;2022-12-16T05:33:33;38.43;;;11.77;;
422;SDS011;198;48.752;9.180;2022-12-16T05:36:17;27.07;;;10.40;;
422;SDS011;198;48.752;9.180;2022-12-16T05:39:01;34.10;;;12.53;;
422;SDS011;198;48.752;9.180;2022-12-16T05:41:46;34.70;;;11.80;;
422;SDS011;198;48.752;9.180;2022-12-16T05:44:29;34.83;;;12.37;;
422;SDS011;198;48.752;9.180;2022-12-16T05:47:13;27.27;;;11.50;;
422;SDS011;198;48.752;9.180;2022-12-16T05:49:57;30.00;;;11.47;;
422;SDS011;198;48.752;9.180;2022-12-16T05:52:51;27.33;;;11.23;;
422;SDS011;198;48.752;9.180;2022-12-16T05:55:36;39.40;;;11.80;;
422;SDS011;198;48.752;9.180;2022-12-16T05:58:20;28.57;;;12.37;;
422;SDS011;198;48.752;9.180;2022-12-16T06:01:05;40.63;;;11.77;;
422;SDS011;198;48.752;9.180;2022-12-16T06:03:49;32.40;;;10.97;;
422;SDS011;198;48.752;9.180;2022-12-16T06:06:33;28.10;;;10.17;;
422;SDS011;198;48.752;9.180;2022-12-16T06:09:16;26.20;;;11.00;;
422;SDS011;198;48.752;9.180;2022-12-16T06:12:00;26.43;;;12.40;;
422;SDS011;198;48.752;9.180;2022-12-16T06:14:44;28.60;;;10.03;;
422;SDS011;198;48.752;9.180;2022-12-16T06:17:28;27.90;;;11.90;;
422;SDS011;198;48.752;9.180;2022-12-16T06:20:13;21.40;;;10.33;;
422;SDS011;198;48.752;9.180;2022-12-16T06:22:57;28.37;;;11.60;;
422;SDS011;198;48.752;9.180;2022-12-16T06:25:41;24.70;;;10.80;;
422;SDS011;198;48.752;9.180;2022-12-16T06:28:25;24.00;;;10.37;;
422;SDS011;198;48.752;9.180;2022-12-16T06:31:09;32.77;;;10.77;;
422;SDS011;198;48.752;9.180;2022-12-16T06:33:53;29.67;;;14.03;;
422;SDS011;198;48.752;9.180;2022-12-16T06:36:37;23.00;;;10.67;;
422;SDS011;198;48.752;9.180;2022-12-16T06:39:22;33.20;;;10.53;;
422;SDS011;198;48.752;9.180;2022-12-16T06:42:06;25.37;;;11.63;;
422;SDS011;198;48.752;9.180;2022-12-16T06:44:50;31.73;;;12.17;;
422;SDS011;198;48.752;9.180;2022-12-16T06:47:34;31.43;;;11.30;;
422;SDS011;198;48.752;9.180;2022-12-16T06:50:18;32.30;;;11.20;;
422;SDS011;198;48.752;9.180;2022-12-16T06:53:02;28.10;;;10.33;;
422;SDS011;198;48.752;9.180;2022-12-16T06:55:46;27.87;;;10.30;;
422;SDS011;198;48.752;9.180;2022-12-16T06:58:31;28.90;;;8.97;;
422;SDS011;198;48.752;9.180;2022-12-16T07:01:14;27.30;;;9.97;;
422;SDS011;198;48.752;9.180;2022-12-16T07:03:58;27.23;;;10.80;;
422;SDS011;198;48.752;9.180;2022-12-16T07:06:42;22.80;;;11.03;;
422;SDS011;198;48.752;9.180;2022-12-16T07:09:26;31.00;;;11.97;;
422;SDS011;198;48.752;9.180;2022-12-16T07:12:10;30.40;;;11.50;;
422;SDS011;198;48.752;9.180;2022-12-16T07:14:55;29.87;;;10.23;;
422;SDS011;198;48.752;9.180;2022-12-16T07:17:39;25.03;;;9.33;;
422;SDS011;198;48.752;9.180;2022-12-16T07:20:23;27.57;;;9.17;;
422;SDS011;198;48.752;9.180;2022-12-16T07:23:07;25.23;;;9.43;;
422;SDS011;198;48.752;9.180;2022-12-16T07:25:52;29.00;;;10.00;;
422;SDS011;198;48.752;9.180;2022-12-16T07:28:36;28.37;;;11.60;;
422;SDS011;198;48.752;9.180;2022-12-16T07:31:20;35.67;;;9.37;;
422;SDS011;198;48.752;9.180;2022-12-16T07:34:04;22.97;;;10.60;;
422;SDS011;198;48.752;9.180;2022-12-16T07:36:48;24.93;;;9.87;;
422;SDS011;198;48.752;9.180;2022-12-16T07:39:32;25.30;;;9.70;;
422;SDS011;198;48.752;9.180;2022-12-16T07:42:16;31.23;;;10.80;;
422;SDS011;198;48.752;9.180;2022-12-16T07:45:00;32.23;;;10.33;;
422;SDS011;198;48.752;9.180;2022-12-16T07:47:48;22.63;;;9.53;;
422;SDS011;198;48.752;9.180;2022-12-16T07:50:33;20.33;;;8.60;;
422;SDS011;198;48.752;9.180;2022-12-16T07:53:18;23.43;;;7.87;;
422;SDS011;198;48.752;9.180;2022-12-16T07:56:03;25.20;;;10.30;;
422;SDS011;198;48.752;9.180;2022-12-16T07:58:47;29.80;;;10.27;;
422;SDS011;198;48.752;9.180;2022-12-16T08:01:31;26.97;;;10.13;;
422;SDS011;198;48.752;9.180;2022-12-16T08:04:15;36.33;;;10.80;;
422;SDS011;198;48.752;9.180;2022-12-16T08:06:59;25.97;;;9.63;;
422;SDS011;198;48.752;9.180;2022-12-16T08:09:43;28.70;;;9.43;;
422;SDS011;198;48.752;9.180;2022-12-16T08:12:27;22.70;;;9.40;;
422;SDS011;198;48.752;9.180;2022-12-16T08:15:11;18.50;;;9.20;;
422;SDS011;198;48.752;9.180;2022-12-16T08:17:55;16.40;;;7.37;;
422;SDS011;198;48.752;9.180;2022-12-16T08:20:39;38.10;;;11.70;;
422;SDS011;198;48.752;9.180;2022-12-16T08:23:23;21.60;;;9.13;;
422;SDS011;198;48.752;9.180;2022-12-16T08:26:07;23.57;;;9.70;;
422;SDS011;198;48.752;9.180;2022-12-16T08:28:51;28.23;;;8.80;;
422;SDS011;198;48.752;9.180;2022-12-16T08:31:35;21.87;;;8.10;;
422;SDS011;198;48.752;9.180;2022-12-16T08:34:19;22.77;;;9.13;;
422;SDS011;198;48.752;9.180;2022-12-16T08:37:03;25.43;;;9.70;;
422;SDS011;198;48.752;9.180;2022-12-16T08:39:47;26.00;;;9.60;;
422;SDS011;198;48.752;9.180;2022-12-16T08:42:31;19.23;;;7.60;;
422;SDS011;198;48.752;9.180;2022-12-16T08:45:15;33.53;;;8.63;;
422;SDS011;198;48.752;9.180;2022-12-16T08:47:59;18.87;;;8.03;;
422;SDS011;198;48.752;9.180;2022-12-16T08:50:44;20.10;;;8.03;;
422;SDS011;198;48.752;9.180;2022-12-16T08:53:29;23.13;;;8.80;;
422;SDS011;198;48.752;9.180;2022-12-16T08:56:13;26.80;;;9.07;;
422;SDS011;198;48.752;9.180;2022-12-16T08:58:57;34.20;;;9.53;;
422;SDS011;198;48.752;9.180;2022-12-16T09:01:41;24.60;;;10.70;;
422;SDS011;198;48.752;9.180;2022-12-16T09:04:25;23.40;;;9.17;;
422;SDS011;198;48.752;9.180;2022-12-16T09:07:09;21.13;;;7.90;;
422;SDS011;198;48.752;9.180;2022-12-16T09:09:54;17.90;;;7.80;;
422;SDS011;198;48.752;9.180;2022-12-16T09:12:38;23.33;;;8.47;;
422;SDS011;198;48.752;9.180;2022-12-16T09:15:22;37.53;;;10.00;;
422;SDS011;198;48.752;9.180;2022-12-16T09:18:06;19.90;;;8.00;;
422;SDS011;198;48.752;9.180;2022-12-16T09:20:50;20.97;;;7.93;;
422;SDS011;198;48.752;9.180;2022-12-16T09:23:34;27.77;;;7.63;;
422;SDS011;198;48.752;9.180;2022-12-16T09:26:19;26.30;;;7.33;;
422;SDS011;198;48.752;9.180;2022-12-16T09:29:04;15.43;;;6.93;;
422;SDS011;198;48.752;9.180;2022-12-16T09:31:48;21.67;;;8.13;;
422;SDS011;198;48.752;9.180;2022-12-16T09:34:32;17.83;;;8.00;;
422;SDS011;198;48.752;9.180;2022-12-16T09:37:16;17.17;;;6.40;;
422;SDS011;198;48.752;9.180;2022-12-16T09:40:00;16.90;;;7.20;;
422;SDS011;198;48.752;9.180;2022-12-16T09:45:46;19.70;;;8.37;;
422;SDS011;198;48.752;9.180;2022-12-16T09:48:41;16.43;;;7.20;;
422;SDS011;198;48.752;9.180;2022-12-16T09:51:38;24.33;;;8.87;;
422;SDS011;198;48.752;9.180;2022-12-16T09:54:24;15.03;;;7.10;;
422;SDS011;198;48.752;9.180;2022-12-16T09:57:12;19.13;;;7.40;;
422;SDS011;198;48.752;9.180;2022-12-16T09:59:59;17.27;;;6.73;;
422;SDS011;198;48.752;9.180;2022-12-16T10:02:46;17.50;;;7.70;;
422;SDS011;198;48.752;9.180;2022-12-16T10:05:35;17.47;;;6.73;;
422;SDS011;198;48.752;9.180;2022-12-16T10:08:52;17.70;;;7.77;;
422;SDS011;198;48.752;9.180;2022-12-16T10:18:35;13.90;;;7.10;;
422;SDS011;198;48.752;9.180;2022-12-16T10:21:52;14.43;;;6.90;;
422;SDS011;198;48.752;9.180;2022-12-16T10:24:59;20.07;;;6.80;;
422;SDS011;198;48.752;9.180;2022-12-16T10:27:47;13.17;;;6.90;;
422;SDS011;198;48.752;9.180;2022-12-16T10:30:33;14.60;;;5.63;;
422;SDS011;198;48.752;9.180;2022-12-16T10:33:21;11.00;;;5.63;;
422;SDS011;198;48.752;9.180;2022-12-16T10:36:16;18.90;;;6.60;;
422;SDS011;198;48.752;9.180;2022-12-16T10:39:39;16.53;;;8.03;;
422;SDS011;198;48.752;9.180;2022-12-16T10:42:30;14.10;;;6.70;;
422;SDS011;198;48.752;9.180;2022-12-16T10:48:13;16.20;;;7.73;;
422;SDS011;198;48.752;9.180;2022-12-16T10:51:04;24.97;;;7.83;;
422;SDS011;198;48.752;9.180;2022-12-16T10:53:56;13.77;;;6.60;;
422;SDS011;198;48.752;9.180;2022-12-16T10:56:57;17.10;;;6.97;;
422;SDS011;198;48.752;9.180;2022-12-16T10:59:51;14.30;;;5.50;;
422;SDS011;198;48.752;9.180;2022-12-16T11:06:02;12.30;;;6.60;;
422;SDS011;198;48.752;9.180;2022-12-16T11:08:46;13.47;;;6.00;;
422;SDS011;198;48.752;9.180;2022-12-16T11:11:31;12.47;;;6.43;;
422;SDS011;198;48.752;9.180;2022-12-16T11:14:22;12.67;;;6.80;;
422;SDS011;198;48.752;9.180;2022-12-16T11:20:13;23.50;;;8.43;;
422;SDS011;198;48.752;9.180;2022-12-16T11:23:10;12.67;;;6.23;;
422;SDS011;198;48.752;9.180;2022-12-16T11:26:14;15.77;;;5.60;;
422;SDS011;198;48.752;9.180;2022-12-16T11:32:29;14.27;;;6.10;;
422;SDS011;198;48.752;9.180;2022-12-16T11:34:57;17.90;;;6.03;;
422;SDS011;198;48.752;9.180;2022-12-16T11:37:43;15.57;;;6.20;;
422;SDS011;198;48.752;9.180;2022-12-16T11:40:30;14.33;;;6.23;;
422;SDS011;198;48.752;9.180;2022-12-16T11:43:15;11.27;;;5.40;;
422;SDS011;198;48.752;9.180;2022-12-16T11:46:26;13.30;;;5.43;;
422;SDS011;198;48.752;9.180;2022-12-16T11:49:14;12.87;;;5.10;;
422;SDS011;198;48.752;9.180;2022-12-16T11:52:05;17.70;;;6.80;;
422;SDS011;198;48.752;9.180;2022-12-16T11:54:58;7.97;;;5.40;;
422;SDS011;198;48.752;9.180;2022-12-16T11:58:09;15.77;;;6.47;;
422;SDS011;198;48.752;9.180;2022-12-16T12:00:59;10.53;;;4.47;;
422;SDS011;198;48.752;9.180;2022-12-16T12:04:08;21.67;;;6.53;;
422;SDS011;198;48.752;9.180;2022-12-16T12:16:27;16.40;;;5.63;;
422;SDS011;198;48.752;9.180;2022-12-16T12:19:25;15.40;;;6.27;;
422;SDS011;198;48.752;9.180;2022-12-16T12:25:22;13.07;;;5.33;;
422;SDS011;198;48.752;9.180;2022-12-16T12:34:12;11.10;;;4.90;;
422;SDS011;198;48.752;9.180;2022-12-16T12:37:25;10.97;;;5.20;;
422;SDS011;198;48.752;9.180;2022-12-16T12:43:04;12.60;;;5.27;;
422;SDS011;198;48.752;9.180;2022-12-16T12:52:01;9.10;;;5.00;;
422;SDS011;198;48.752;9.180;2022-12-16T12:54:48;9.50;;;4.13;;
422;SDS011;198;48.752;9.180;2022-12-16T12:57:40;12.70;;;5.53;;
422;SDS011;198;48.752;9.180;2022-12-16T13:00:29;12.87;;;6.30;;
422;SDS011;198;48.752;9.180;2022-12-16T13:03:23;14.07;;;5.70;;
422;SDS011;198;48.752;9.180;2022-12-16T13:06:12;18.50;;;6.80;;
422;SDS011;198;48.752;9.180;2022-12-16T13:08:58;10.57;;;5.13;;
422;SDS011;198;48.752;9.180;2022-12-16T13:18:11;15.13;;;5.17;;
422;SDS011;198;48.752;9.180;2022-12-16T13:20:52;12.73;;;5.23;;
422;SDS011;198;48.752;9.180;2022-12-16T13:23:39;15.10;;;5.47;;
422;SDS011;198;48.752;9.180;2022-12-16T13:26:25;11.43;;;5.23;;
422;SDS011;198;48.752;9.180;2022-12-16T13:29:38;11.60;;;4.70;;
422;SDS011;198;48.752;9.180;2022-12-16T13:32:23;14.17;;;5.10;;
422;SDS011;198;48.752;9.180;2022-12-16T13:38:05;19.33;;;6.00;;
422;SDS011;198;48.752;9.180;2022-12-16T13:41:08;19.80;;;7.37;;
422;SDS011;198;48.752;9.180;2022-12-16T13:44:10;12.50;;;6.77;;
422;SDS011;198;48.752;9.180;2022-12-16T13:46:55;13.90;;;5.63;;
422;SDS011;198;48.752;9.180;2022-12-16T13:49:50;21.90;;;6.63;;
422;SDS011;198;48.752;9.180;2022-12-16T13:52:41;13.87;;;6.93;;
422;SDS011;198;48.752;9.180;2022-12-16T13:55:38;15.37;;;6.23;;
422;SDS011;198;48.752;9.180;2022-12-16T13:58:37;10.03;;;4.90;;
422;SDS011;198;48.752;9.180;2022-12-16T14:01:37;16.27;;;7.10;;
422;SDS011;198;48.752;9.180;2022-12-16T14:04:28;12.60;;;5.60;;
422;SDS011;198;48.752;9.180;2022-12-16T14:07:16;12.37;;;4.90;;
422;SDS011;198;48.752;9.180;2022-12-16T14:10:03;16.70;;;6.17;;
422;SDS011;198;48.752;9.180;2022-12-16T14:21:51;13.27;;;6.10;;
422;SDS011;198;48.752;9.180;2022-12-16T14:24:45;18.97;;;7.00;;
422;SDS011;198;48.752;9.180;2022-12-16T14:27:30;18.97;;;6.37;;
422;SDS011;198;48.752;9.180;2022-12-16T14:30:21;20.03;;;6.90;;
422;SDS011;198;48.752;9.180;2022-12-16T14:33:14;16.20;;;5.70;;
422;SDS011;198;48.752;9.180;2022-12-16T14:36:22;13.50;;;5.63;;
422;SDS011;198;48.752;9.180;2022-12-16T14:39:08;16.70;;;6.43;;
422;SDS011;198;48.752;9.180;2022-12-16T14:41:54;13.33;;;6.53;;
422;SDS011;198;48.752;9.180;2022-12-16T14:44:38;14.77;;;7.30;;
422;SDS011;198;48.752;9.180;2022-12-16T14:47:23;11.50;;;7.27;;
422;SDS011;198;48.752;9.180;2022-12-16T14:50:19;23.60;;;6.60;;
422;SDS011;198;48.752;9.180;2022-12-16T14:53:13;10.60;;;5.80;;
422;SDS011;198;48.752;9.180;2022-12-16T14:56:13;11.07;;;5.03;;
422;SDS011;198;48.752;9.180;2022-12-16T14:59:14;14.27;;;5.80;;
422;SDS011;198;48.752;9.180;2022-12-16T15:02:07;15.10;;;5.80;;
422;SDS011;198;48.752;9.180;2022-12-16T15:05:17;10.13;;;6.03;;
422;SDS011;198;48.752;9.180;2022-12-16T15:08:02;14.63;;;6.20;;
422;SDS011;198;48.752;9.180;2022-12-16T15:10:48;22.23;;;8.70;;
422;SDS011;198;48.752;9.180;2022-12-16T15:13:32;13.27;;;6.47;;
422;SDS011;198;48.752;9.180;2022-12-16T15:16:27;23.53;;;7.40;;
422;SDS011;198;48.752;9.180;2022-12-16T15:19:18;21.73;;;6.40;;
422;SDS011;198;48.752;9.180;2022-12-16T15:22:04;16.33;;;7.20;;
422;SDS011;198;48.752;9.180;2022-12-16T15:24:48;17.03;;;5.80;;
422;SDS011;198;48.752;9.180;2022-12-16T15:27:34;19.60;;;7.13;;
422;SDS011;198;48.752;9.180;2022-12-16T15:33:21;13.43;;;5.40;;
422;SDS011;198;48.752;9.180;2022-12-16T15:39:22;18.47;;;7.60;;
422;SDS011;198;48.752;9.180;2022-12-16T15:42:20;23.30;;;7.80;;
422;SDS011;198;48.752;9.180;2022-12-16T15:45:23;15.10;;;6.93;;
422;SDS011;198;48.752;9.180;2022-12-16T15:48:12;20.03;;;6.60;;
422;SDS011;198;48.752;9.180;2022-12-16T15:54:14;25.93;;;6.53;;
422;SDS011;198;48.752;9.180;2022-12-16T15:57:00;17.30;;;8.30;;
422;SDS011;198;48.752;9.180;2022-12-16T15:59:53;14.03;;;7.17;;
422;SDS011;198;48.752;9.180;2022-12-16T16:02:43;28.40;;;7.47;;
422;SDS011;198;48.752;9.180;2022-12-16T16:05:30;14.93;;;7.80;;
422;SDS011;198;48.752;9.180;2022-12-16T16:08:14;15.53;;;6.37;;
422;SDS011;198;48.752;9.180;2022-12-16T16:10:58;14.50;;;6.20;;
422;SDS011;198;48.752;9.180;2022-12-16T16:13:42;16.27;;;6.90;;
422;SDS011;198;48.752;9.180;2022-12-16T16:16:27;12.47;;;5.87;;
422;SDS011;198;48.752;9.180;2022-12-16T16:19:12;11.50;;;5.47;;
422;SDS011;198;48.752;9.180;2022-12-16T16:22:04;12.03;;;5.63;;
422;SDS011;198;48.752;9.180;2022-12-16T16:24:53;18.07;;;6.67;;
422;SDS011;198;48.752;9.180;2022-12-16T16:27:37;16.77;;;6.67;;
422;SDS011;198;48.752;9.180;2022-12-16T16:30:21;15.43;;;6.07;;
422;SDS011;198;48.752;9.180;2022-12-16T16:33:05;14.27;;;8.13;;
422;SDS011;198;48.752;9.180;2022-12-16T16:35:49;12.27;;;5.90;;
422;SDS011;198;48.752;9.180;2022-12-16T16:38:33;14.40;;;7.23;;
422;SDS011;198;48.752;9.180;2022-12-16T16:41:17;17.70;;;7.17;;
422;SDS011;198;48.752;9.180;2022-12-16T16:44:02;14.20;;;6.10;;
422;SDS011;198;48.752;9.180;2022-12-16T16:46:46;26.00;;;7.00;;
422;SDS011;198;48.752;9.180;2022-12-16T16:49:31;14.57;;;7.10;;
422;SDS011;198;48.752;9.180;2022-12-16T16:52:18;13.70;;;6.87;;
422;SDS011;198;48.752;9.180;2022-12-16T16:55:24;12.37;;;6.03;;
422;SDS011;198;48.752;9.180;2022-12-16T16:58:11;19.37;;;7.87;;
422;SDS011;198;48.752;9.180;2022-12-16T17:00:59;14.30;;;6.30;;
422;SDS011;198;48.752;9.180;2022-12-16T17:03:43;17.83;;;6.10;;
422;SDS011;198;48.752;9.180;2022-12-16T17:06:27;21.50;;;7.20;;
422;SDS011;198;48.752;9.180;2022-12-16T17:09:11;22.90;;;7.07;;
422;SDS011;198;48.752;9.180;2022-12-16T17:11:55;15.83;;;7.10;;
422;SDS011;198;48.752;9.180;2022-12-16T17:14:39;15.90;;;6.50;;
422;SDS011;198;48.752;9.180;2022-12-16T17:17:23;14.07;;;6.70;;
422;SDS011;198;48.752;9.180;2022-12-16T17:20:07;11.83;;;6.30;;
422;SDS011;198;48.752;9.180;2022-12-16T17:22:57;23.60;;;8.97;;
422;SDS011;198;48.752;9.180;2022-12-16T17:25:41;22.33;;;8.73;;
422;SDS011;198;48.752;9.180;2022-12-16T17:28:25;16.60;;;8.17;;
422;SDS011;198;48.752;9.180;2022-12-16T17:31:09;25.40;;;8.60;;
422;SDS011;198;48.752;9.180;2022-12-16T17:33:53;21.13;;;8.10;;
422;SDS011;198;48.752;9.180;2022-12-16T17:36:37;19.73;;;8.07;;
422;SDS011;198;48.752;9.180;2022-12-16T17:39:21;15.40;;;6.83;;
422;SDS011;198;48.752;9.180;2022-12-16T17:42:05;17.17;;;7.30;;
422;SDS011;198;48.752;9.180;2022-12-16T17:44:49;19.97;;;9.10;;
422;SDS011;198;48.752;9.180;2022-12-16T17:47:33;18.17;;;8.40;;
422;SDS011;198;48.752;9.180;2022-12-16T17:50:17;26.20;;;9.00;;
422;SDS011;198;48.752;9.180;2022-12-16T17:53:01;24.00;;;9.47;;
422;SDS011;198;48.752;9.180;2022-12-16T17:55:45;24.17;;;10.17;;
422;SDS011;198;48.752;9.180;2022-12-16T17:58:30;30.93;;;10.97;;
422;SDS011;198;48.752;9.180;2022-12-16T18:01:15;22.43;;;9.10;;
422;SDS011;198;48.752;9.180;2022-12-16T18:04:00;25.23;;;9.83;;
422;SDS011;198;48.752;9.180;2022-12-16T18:06:44;24.43;;;9.10;;
422;SDS011;198;48.752;9.180;2022-12-16T18:09:28;19.70;;;8.20;;
422;SDS011;198;48.752;9.180;2022-12-16T18:12:11;26.70;;;11.57;;
422;SDS011;198;48.752;9.180;2022-12-16T18:14:55;18.73;;;8.27;;
422;SDS011;198;48.752;9.180;2022-12-16T18:17:40;20.83;;;8.00;;
422;SDS011;198;48.752;9.180;2022-12-16T18:20:24;20.23;;;8.53;;
422;SDS011;198;48.752;9.180;2022-12-16T18:23:07;19.33;;;7.60;;
422;SDS011;198;48.752;9.180;2022-12-16T18:26:02;20.53;;;8.40;;
422;SDS011;198;48.752;9.180;2022-12-16T18:28:47;38.23;;;9.37;;
422;SDS011;198;48.752;9.180;2022-12-16T18:31:31;15.87;;;6.63;;
422;SDS011;198;48.752;9.180;2022-12-16T18:34:16;22.00;;;8.60;;
422;SDS011;198;48.752;9.180;2022-12-16T18:37:00;19.73;;;8.20;;
422;SDS011;198;48.752;9.180;2022-12-16T18:39:44;25.53;;;9.17;;
422;SDS011;198;48.752;9.180;2022-12-16T18:42:28;27.53;;;8.20;;
422;SDS011;198;48.752;9.180;2022-12-16T18:45:26;17.97;;;7.83;;
422;SDS011;198;48.752;9.180;2022-12-16T18:48:10;20.80;;;8.57;;